VJC969 VVCR-VTBS
Flight info
| Callsign | VJC969 |
|---|---|
| Flight time | N/A |
| Altitude | 36000 |
| Route | BANKE1B BANKE DCT SOSPA DCT LKH W15 AC/K0793F280 W1 TSH R468 SAPEN/N0427F280 R468 ELMOP P629 NUGPA DCT TUMGA TUMGA1C |
| Aircraft | A21N/M-SDE2E3FGHIRWXY/LB1 |
Departure
| Time | 2026-04-24 11:38 |
|---|---|
| Airport | Cam Ranh International Airport / Cam Ranh Air Base (VVCR) |
Arrival
| Time | N/A |
|---|---|
| Airport | Suvarnabhumi Airport (VTBS) |
| Time | Latitude | Longitude | Altitude | Speed | Heading |
|---|---|---|---|---|---|
| 2026-04-24 11:08 | 12.00755 | 109.21685 | 58 ft | 0 kts | 289° |
| 2026-04-24 11:31 | 12.00751 | 109.21696 | 58 ft | 4 kts | 289° |
| 2026-04-24 11:32 | 12.00742 | 109.21722 | 50 ft | 4 kts | 289° |
| 2026-04-24 11:32 | 12.00733 | 109.21748 | 52 ft | 4 kts | 289° |
| 2026-04-24 11:32 | 12.00727 | 109.21769 | 52 ft | 4 kts | 289° |
| 2026-04-24 11:32 | 12.00715 | 109.21799 | 53 ft | 4 kts | 297° |
| 2026-04-24 11:33 | 12.00701 | 109.21822 | 51 ft | 3 kts | 303° |
| 2026-04-24 11:33 | 12.00700 | 109.21824 | 50 ft | 2 kts | 303° |
| 2026-04-24 11:35 | 12.00701 | 109.21823 | 51 ft | 2 kts | 310° |
| 2026-04-24 11:35 | 12.00730 | 109.21832 | 56 ft | 7 kts | 28° |
| 2026-04-24 11:35 | 12.00791 | 109.21860 | 54 ft | 12 kts | 17° |
| 2026-04-24 11:36 | 12.00826 | 109.21938 | 55 ft | 16 kts | 108° |
| 2026-04-24 11:36 | 12.00822 | 109.22051 | 55 ft | 17 kts | 20° |
| 2026-04-24 11:36 | 12.00940 | 109.22091 | 53 ft | 19 kts | 19° |
| 2026-04-24 11:36 | 12.01069 | 109.22137 | 58 ft | 20 kts | 19° |
| 2026-04-24 11:37 | 12.01159 | 109.22184 | 58 ft | 15 kts | 68° |
| 2026-04-24 11:37 | 12.01137 | 109.22291 | 59 ft | 17 kts | 109° |
| 2026-04-24 11:37 | 12.01066 | 109.22371 | 53 ft | 19 kts | 208° |
| 2026-04-24 11:37 | 12.00859 | 109.22294 | 59 ft | 61 kts | 199° |
| 2026-04-24 11:38 | 12.00231 | 109.22078 | 58 ft | 126 kts | 198° |
| 2026-04-24 11:38 | 11.99242 | 109.21730 | 154 ft | 163 kts | 198° |
| 2026-04-24 11:38 | 11.98170 | 109.21334 | 657 ft | 165 kts | 196° |
| 2026-04-24 11:38 | 11.97063 | 109.21003 | 1218 ft | 167 kts | 197° |
| 2026-04-24 11:39 | 11.95953 | 109.20615 | 1816 ft | 170 kts | 198° |
| 2026-04-24 11:39 | 11.94938 | 109.20002 | 2430 ft | 173 kts | 226° |
| 2026-04-24 11:39 | 11.94366 | 109.18858 | 2883 ft | 194 kts | 255° |
| 2026-04-24 11:39 | 11.94087 | 109.17458 | 3388 ft | 208 kts | 258° |
| 2026-04-24 11:40 | 11.93770 | 109.15947 | 3792 ft | 230 kts | 257° |
| 2026-04-24 11:40 | 11.93411 | 109.14320 | 4174 ft | 252 kts | 257° |
| 2026-04-24 11:40 | 11.92993 | 109.12460 | 4711 ft | 270 kts | 257° |
| 2026-04-24 11:40 | 11.92567 | 109.10562 | 5424 ft | 278 kts | 257° |
| 2026-04-24 11:41 | 11.92128 | 109.08625 | 6223 ft | 282 kts | 257° |
| 2026-04-24 11:41 | 11.91684 | 109.06663 | 6976 ft | 286 kts | 258° |
| 2026-04-24 11:41 | 11.91240 | 109.04701 | 7727 ft | 289 kts | 258° |
| 2026-04-24 11:41 | 11.90783 | 109.02696 | 8522 ft | 291 kts | 258° |
| 2026-04-24 11:42 | 11.90324 | 109.00671 | 9295 ft | 294 kts | 258° |
| 2026-04-24 11:42 | 11.89862 | 108.98631 | 10019 ft | 297 kts | 258° |
| 2026-04-24 11:42 | 11.89382 | 108.96522 | 10417 ft | 314 kts | 258° |
| 2026-04-24 11:42 | 11.88872 | 108.94285 | 10684 ft | 333 kts | 258° |
| 2026-04-24 11:43 | 11.88333 | 108.91922 | 10965 ft | 350 kts | 258° |
| 2026-04-24 11:43 | 11.87772 | 108.89462 | 11415 ft | 360 kts | 258° |
| 2026-04-24 11:43 | 11.87196 | 108.86961 | 12044 ft | 364 kts | 257° |
| 2026-04-24 11:43 | 11.86613 | 108.84437 | 12736 ft | 367 kts | 257° |
| 2026-04-24 11:44 | 11.86027 | 108.81892 | 13399 ft | 370 kts | 257° |
| 2026-04-24 11:44 | 11.85431 | 108.79322 | 14028 ft | 373 kts | 257° |
| 2026-04-24 11:44 | 11.84837 | 108.76735 | 14625 ft | 375 kts | 257° |
| 2026-04-24 11:44 | 11.84241 | 108.74133 | 15220 ft | 378 kts | 257° |
| 2026-04-24 11:45 | 11.83640 | 108.71511 | 15780 ft | 381 kts | 256° |
| 2026-04-24 11:45 | 11.83036 | 108.68868 | 16368 ft | 384 kts | 256° |
| 2026-04-24 11:45 | 11.82424 | 108.66205 | 16916 ft | 387 kts | 256° |
| 2026-04-24 11:45 | 11.81808 | 108.63520 | 17448 ft | 390 kts | 256° |
| 2026-04-24 11:46 | 11.81189 | 108.60811 | 17970 ft | 393 kts | 256° |
| 2026-04-24 11:46 | 11.80563 | 108.58087 | 18456 ft | 396 kts | 256° |
| 2026-04-24 11:46 | 11.79930 | 108.55340 | 18934 ft | 398 kts | 256° |
| 2026-04-24 11:46 | 11.79293 | 108.52580 | 19412 ft | 401 kts | 256° |
| 2026-04-24 11:47 | 11.78651 | 108.49808 | 19884 ft | 403 kts | 256° |
| 2026-04-24 11:47 | 11.78007 | 108.47015 | 20342 ft | 405 kts | 256° |
| 2026-04-24 11:47 | 11.77362 | 108.44212 | 20797 ft | 407 kts | 256° |
| 2026-04-24 11:47 | 11.76712 | 108.41388 | 21253 ft | 409 kts | 256° |
| 2026-04-24 11:48 | 11.76055 | 108.38555 | 21727 ft | 411 kts | 255° |
| 2026-04-24 11:48 | 11.75172 | 108.35779 | 22176 ft | 413 kts | 247° |
| 2026-04-24 11:48 | 11.73805 | 108.33196 | 22622 ft | 415 kts | 237° |
| 2026-04-24 11:48 | 11.72147 | 108.30772 | 23057 ft | 418 kts | 234° |
| 2026-04-24 11:49 | 11.70443 | 108.28366 | 23488 ft | 420 kts | 234° |
| 2026-04-24 11:49 | 11.68732 | 108.25937 | 23840 ft | 423 kts | 235° |
| 2026-04-24 11:49 | 11.67020 | 108.23489 | 24178 ft | 425 kts | 235° |
| 2026-04-24 11:49 | 11.65302 | 108.21022 | 24525 ft | 428 kts | 235° |
| 2026-04-24 11:50 | 11.63599 | 108.18572 | 24860 ft | 431 kts | 235° |
| 2026-04-24 11:50 | 11.61839 | 108.16037 | 25201 ft | 433 kts | 235° |
| 2026-04-24 11:50 | 11.60091 | 108.13524 | 25536 ft | 436 kts | 235° |
| 2026-04-24 11:50 | 11.58330 | 108.10999 | 25849 ft | 438 kts | 235° |
| 2026-04-24 11:51 | 11.56583 | 108.08485 | 26177 ft | 441 kts | 235° |
| 2026-04-24 11:51 | 11.54784 | 108.05895 | 26506 ft | 443 kts | 235° |
| 2026-04-24 11:51 | 11.52990 | 108.03322 | 26827 ft | 446 kts | 235° |
| 2026-04-24 11:51 | 11.51209 | 108.00776 | 27141 ft | 449 kts | 235° |
| 2026-04-24 11:52 | 11.49396 | 107.98177 | 27453 ft | 451 kts | 235° |
| 2026-04-24 11:52 | 11.47575 | 107.95565 | 27773 ft | 453 kts | 235° |
| 2026-04-24 11:52 | 11.45744 | 107.92938 | 28082 ft | 456 kts | 235° |
| 2026-04-24 11:52 | 11.43903 | 107.90297 | 28393 ft | 458 kts | 235° |
| 2026-04-24 11:53 | 11.42055 | 107.87651 | 28690 ft | 460 kts | 235° |
| 2026-04-24 11:53 | 11.40192 | 107.84988 | 28984 ft | 462 kts | 235° |
| 2026-04-24 11:53 | 11.38322 | 107.82316 | 29250 ft | 465 kts | 235° |
| 2026-04-24 11:53 | 11.36445 | 107.79631 | 29592 ft | 465 kts | 235° |
| 2026-04-24 11:54 | 11.34568 | 107.76946 | 29968 ft | 465 kts | 235° |
| 2026-04-24 11:54 | 11.32696 | 107.74268 | 30265 ft | 464 kts | 235° |
| 2026-04-24 11:54 | 11.30823 | 107.71591 | 30547 ft | 464 kts | 235° |
| 2026-04-24 11:54 | 11.28951 | 107.68914 | 30849 ft | 464 kts | 235° |
| 2026-04-24 11:55 | 11.27078 | 107.66234 | 31111 ft | 464 kts | 234° |
| 2026-04-24 11:55 | 11.25205 | 107.63555 | 31359 ft | 465 kts | 235° |
| 2026-04-24 11:55 | 11.23330 | 107.60872 | 31618 ft | 465 kts | 235° |
| 2026-04-24 11:55 | 11.21459 | 107.58189 | 31854 ft | 465 kts | 235° |
| 2026-04-24 11:56 | 11.19594 | 107.55497 | 32089 ft | 466 kts | 235° |
| 2026-04-24 11:56 | 11.17721 | 107.52806 | 32339 ft | 466 kts | 235° |
| 2026-04-24 11:56 | 11.15841 | 107.50117 | 32585 ft | 466 kts | 234° |
| 2026-04-24 11:56 | 11.13956 | 107.47431 | 32822 ft | 466 kts | 234° |
| 2026-04-24 11:57 | 11.12072 | 107.44739 | 33047 ft | 467 kts | 234° |
| 2026-04-24 11:57 | 11.10184 | 107.42047 | 33261 ft | 467 kts | 234° |
| 2026-04-24 11:57 | 11.08298 | 107.39357 | 33495 ft | 467 kts | 234° |
| 2026-04-24 11:57 | 11.06406 | 107.36663 | 33689 ft | 468 kts | 234° |
| 2026-04-24 11:58 | 11.04515 | 107.33961 | 33875 ft | 469 kts | 234° |
| 2026-04-24 11:58 | 11.02622 | 107.31260 | 34074 ft | 469 kts | 234° |
| 2026-04-24 11:58 | 11.00727 | 107.28562 | 34279 ft | 468 kts | 234° |
| 2026-04-24 11:58 | 10.98833 | 107.25860 | 34453 ft | 469 kts | 234° |
| 2026-04-24 11:59 | 10.96932 | 107.23161 | 34638 ft | 469 kts | 234° |
| 2026-04-24 11:59 | 10.95092 | 107.20423 | 34848 ft | 468 kts | 239° |
| 2026-04-24 11:59 | 10.93671 | 107.17449 | 34992 ft | 468 kts | 251° |
| 2026-04-24 11:59 | 10.92794 | 107.14259 | 35111 ft | 469 kts | 257° |
| 2026-04-24 12:00 | 10.92088 | 107.11024 | 35293 ft | 468 kts | 258° |
| 2026-04-24 12:00 | 10.91392 | 107.07787 | 35464 ft | 468 kts | 258° |
| 2026-04-24 12:00 | 10.90678 | 107.04555 | 35645 ft | 468 kts | 258° |
| 2026-04-24 12:00 | 10.89959 | 107.01329 | 35814 ft | 468 kts | 257° |
| 2026-04-24 12:01 | 10.88519 | 106.94919 | 35880 ft | 467 kts | 257° |
| 2026-04-24 12:01 | 10.87078 | 106.88473 | 35853 ft | 467 kts | 257° |
| 2026-04-24 12:02 | 10.85627 | 106.82026 | 35844 ft | 468 kts | 257° |
| 2026-04-24 12:02 | 10.84178 | 106.75579 | 35848 ft | 467 kts | 257° |
| 2026-04-24 12:03 | 10.82789 | 106.69142 | 35840 ft | 467 kts | 262° |
| 2026-04-24 12:03 | 10.82592 | 106.65849 | 35841 ft | 467 kts | 273° |
| 2026-04-24 12:04 | 10.83875 | 106.60068 | 35850 ft | 465 kts | 293° |
| 2026-04-24 12:04 | 10.85176 | 106.57061 | 35851 ft | 465 kts | 295° |
| 2026-04-24 12:04 | 10.87875 | 106.51026 | 35850 ft | 471 kts | 295° |
| 2026-04-24 12:05 | 10.90530 | 106.44933 | 35840 ft | 471 kts | 295° |
| 2026-04-24 12:05 | 10.93154 | 106.38838 | 35839 ft | 471 kts | 295° |
| 2026-04-24 12:06 | 10.95791 | 106.32736 | 35831 ft | 471 kts | 294° |
| 2026-04-24 12:06 | 10.98422 | 106.26632 | 35831 ft | 471 kts | 294° |
| 2026-04-24 12:07 | 11.01051 | 106.20534 | 35832 ft | 471 kts | 294° |
| 2026-04-24 12:07 | 11.03559 | 106.14375 | 35832 ft | 471 kts | 292° |
| 2026-04-24 12:08 | 11.05991 | 106.08186 | 35832 ft | 471 kts | 292° |
| 2026-04-24 12:08 | 11.08414 | 106.02039 | 35827 ft | 471 kts | 292° |
| 2026-04-24 12:09 | 11.10420 | 105.95708 | 35824 ft | 472 kts | 279° |
| 2026-04-24 12:09 | 11.10587 | 105.92377 | 35826 ft | 472 kts | 266° |
| 2026-04-24 12:09 | 11.10196 | 105.89058 | 35835 ft | 473 kts | 262° |
| 2026-04-24 12:10 | 11.09164 | 105.82448 | 35830 ft | 473 kts | 261° |
| 2026-04-24 12:11 | 11.07688 | 105.72524 | 35825 ft | 473 kts | 263° |
| 2026-04-24 12:11 | 11.08016 | 105.65895 | 35822 ft | 471 kts | 285° |
| 2026-04-24 12:12 | 11.10166 | 105.59607 | 35827 ft | 470 kts | 291° |
| 2026-04-24 12:12 | 11.12386 | 105.53352 | 35823 ft | 470 kts | 290° |
| 2026-04-24 12:13 | 11.14573 | 105.47082 | 35821 ft | 470 kts | 290° |
| 2026-04-24 12:13 | 11.16751 | 105.40808 | 35821 ft | 470 kts | 290° |
| 2026-04-24 12:14 | 11.18932 | 105.34535 | 35817 ft | 470 kts | 290° |
| 2026-04-24 12:14 | 11.21099 | 105.28302 | 35814 ft | 470 kts | 290° |
| 2026-04-24 12:15 | 11.23296 | 105.21980 | 35816 ft | 470 kts | 290° |
| 2026-04-24 12:15 | 11.25468 | 105.15742 | 35812 ft | 470 kts | 290° |
| 2026-04-24 12:16 | 11.27640 | 105.09457 | 35811 ft | 470 kts | 290° |
| 2026-04-24 12:16 | 11.29818 | 105.03169 | 35808 ft | 470 kts | 290° |
| 2026-04-24 12:17 | 11.32001 | 104.96892 | 35809 ft | 470 kts | 290° |
| 2026-04-24 12:17 | 11.34265 | 104.90645 | 35804 ft | 470 kts | 296° |
| 2026-04-24 12:18 | 11.37593 | 104.84918 | 35809 ft | 470 kts | 303° |
| 2026-04-24 12:18 | 11.41091 | 104.79295 | 35803 ft | 470 kts | 303° |
| 2026-04-24 12:19 | 11.44569 | 104.73664 | 35803 ft | 470 kts | 303° |
| 2026-04-24 12:19 | 11.48027 | 104.68012 | 35804 ft | 470 kts | 303° |
| 2026-04-24 12:20 | 11.51486 | 104.62360 | 35806 ft | 470 kts | 303° |
| 2026-04-24 12:20 | 11.54950 | 104.56714 | 35800 ft | 470 kts | 303° |
| 2026-04-24 12:21 | 11.58412 | 104.51067 | 35804 ft | 470 kts | 303° |
| 2026-04-24 12:21 | 11.61879 | 104.45418 | 35799 ft | 470 kts | 303° |
| 2026-04-24 12:22 | 11.65306 | 104.39800 | 35804 ft | 470 kts | 303° |
| 2026-04-24 12:22 | 11.68761 | 104.34147 | 35808 ft | 469 kts | 303° |
| 2026-04-24 12:23 | 11.72215 | 104.28504 | 35810 ft | 469 kts | 303° |
| 2026-04-24 12:23 | 11.75659 | 104.22858 | 35810 ft | 469 kts | 303° |
| 2026-04-24 12:24 | 11.79108 | 104.17205 | 35815 ft | 470 kts | 303° |
| 2026-04-24 12:24 | 11.82565 | 104.11543 | 35816 ft | 470 kts | 303° |
| 2026-04-24 12:25 | 11.86014 | 104.05873 | 35830 ft | 470 kts | 303° |
| 2026-04-24 12:25 | 11.89473 | 104.00202 | 35830 ft | 470 kts | 303° |
| 2026-04-24 12:26 | 11.92923 | 103.94531 | 35830 ft | 470 kts | 302° |
| 2026-04-24 12:26 | 11.96373 | 103.88855 | 35836 ft | 470 kts | 303° |
| 2026-04-24 12:27 | 11.99820 | 103.83179 | 35830 ft | 471 kts | 303° |
| 2026-04-24 12:27 | 12.03282 | 103.77488 | 35836 ft | 472 kts | 303° |
| 2026-04-24 12:28 | 12.06714 | 103.71833 | 35842 ft | 471 kts | 302° |
| 2026-04-24 12:28 | 12.10157 | 103.66156 | 35841 ft | 470 kts | 303° |
| 2026-04-24 12:29 | 12.13596 | 103.60480 | 35853 ft | 470 kts | 302° |
| 2026-04-24 12:29 | 12.17039 | 103.54802 | 35835 ft | 470 kts | 302° |
| 2026-04-24 12:30 | 12.20476 | 103.49128 | 35839 ft | 470 kts | 302° |
| 2026-04-24 12:30 | 12.23912 | 103.43444 | 35838 ft | 470 kts | 303° |
| 2026-04-24 12:31 | 12.27342 | 103.37765 | 35842 ft | 470 kts | 302° |
| 2026-04-24 12:31 | 12.30780 | 103.32088 | 35832 ft | 470 kts | 302° |
| 2026-04-24 12:32 | 12.34214 | 103.26400 | 35831 ft | 470 kts | 302° |
| 2026-04-24 12:32 | 12.37622 | 103.20688 | 35829 ft | 470 kts | 302° |
| 2026-04-24 12:33 | 12.41044 | 103.14996 | 35843 ft | 470 kts | 303° |
| 2026-04-24 12:33 | 12.44479 | 103.09305 | 35844 ft | 470 kts | 302° |
| 2026-04-24 12:34 | 12.47866 | 103.03666 | 35835 ft | 466 kts | 302° |
| 2026-04-24 12:34 | 12.51274 | 102.98023 | 35834 ft | 466 kts | 302° |